Hauptseite
METAR-TAF:

METAR-TAF

Flughäfen :

Flughafen Dresden

Dresden, Deutschland

Breite: 51-08N, Länge: 013-45E, Höhe: 230 m

Beobachtung

Neuester Wetterbericht von vor 32 Minuten, um 21:20 UTC
Wind 5 kt aus Ost
Temperatur 20°C
Luftfeuchtigkeit 46%
Luftdruck 1013 hPa
Sichtweite 10 km oder mehr
keine Wolken unter 1500 m und keine Kumulonimbus oder Gewitterwolken

METAR: EDDC 202120Z 08005KT CAVOK 20/08 Q1013

Zeit: 23:52 (21:52 UTC)

Prognose

Neuester Wetterbericht von vor 4 Stunden und 52 Minuten, um 17:00 UTC
Gültige Prognose vom 20 um 18 UTC bis 21 um 18 UTC
Wind 6 kt aus Nordost
Sichtweite 10 km oder mehr
keine Wolken unter 1500 m und keine Kumulonimbus oder Gewitterwolken
Übergehend zu
vom 20 um 18 UTC bis 20 um 21 UTC
Wind 4 kt aus Südost
Übergehend zu
vom 21 um 09 UTC bis 21 um 11 UTC
Wind 10 kt aus Ost/Nordost

TAF: EDDC 201700Z 2018/2118 04006KT CAVOK BECMG 2018/2021 13004KT BECMG 2109/2111 07010KT

Wetterbeobachtungen und Prognosen von mehr als 4000 Flughäfen (METAR und TAF Bericht).

Die verfügbaren Stationen werden durch gelbe und rote Markierungen auf der Karte dargestellt.

Führen Sie die Maus auf sie, um den Namen der Station zu sehen.

Darauf klicken, um die Beobachtung von Wetterbeobachtungen und Prognosen zu sehen.

Um die Karte zu ändern : klicken Sie auf den grünen Tasten mit einem schwarzen Kreuz Zum Vergrößern, auf den grünen Button mit einem Gedankenstrich zu verkleinern, oder auf die grünen Pfeile für benachbarte Karten.


METAR-TAF: